sensor_id;sensor_type;location;lat;lon;timestamp;pressure;altitude;pressure_sealevel;temperature;humidity
13241;BME280;6687;47.790;7.322;2023-07-24T05:25:00;98186.16;;;22.48;56.97
13241;BME280;6687;47.790;7.322;2023-07-24T05:27:26;98199.38;;;22.62;55.71
13241;BME280;6687;47.790;7.322;2023-07-24T05:29:55;98195.66;;;22.66;55.94
13241;BME280;6687;47.790;7.322;2023-07-24T05:32:21;98200.38;;;22.75;54.75
13241;BME280;6687;47.790;7.322;2023-07-24T05:34:48;98198.59;;;22.90;53.95
13241;BME280;6687;47.790;7.322;2023-07-24T05:37:15;98200.78;;;22.98;54.12
13241;BME280;6687;47.790;7.322;2023-07-24T05:39:41;98200.56;;;23.01;54.13
13241;BME280;6687;47.790;7.322;2023-07-24T05:42:09;98196.53;;;23.10;53.02
13241;BME280;6687;47.790;7.322;2023-07-24T05:44:36;98207.22;;;23.22;52.92
13241;BME280;6687;47.790;7.322;2023-07-24T05:47:03;98207.59;;;23.31;52.25
13241;BME280;6687;47.790;7.322;2023-07-24T05:49:31;98206.16;;;23.39;52.12
13241;BME280;6687;47.790;7.322;2023-07-24T05:51:57;98208.41;;;23.46;51.99
13241;BME280;6687;47.790;7.322;2023-07-24T05:54:24;98205.63;;;23.61;52.25
13241;BME280;6687;47.790;7.322;2023-07-24T05:56:52;98216.88;;;23.65;52.22
13241;BME280;6687;47.790;7.322;2023-07-24T05:59:20;98200.72;;;23.84;52.16
13241;BME280;6687;47.790;7.322;2023-07-24T06:01:46;98195.03;;;23.90;52.52
13241;BME280;6687;47.790;7.322;2023-07-24T06:04:13;98208.19;;;24.05;51.67
13241;BME280;6687;47.790;7.322;2023-07-24T06:06:40;98219.13;;;24.13;51.76
13241;BME280;6687;47.790;7.322;2023-07-24T06:09:06;98216.72;;;24.22;53.42
13241;BME280;6687;47.790;7.322;2023-07-24T06:11:33;98218.69;;;24.33;51.91
13241;BME280;6687;47.790;7.322;2023-07-24T06:14:00;98228.63;;;24.30;54.14
13241;BME280;6687;47.790;7.322;2023-07-24T06:16:28;98247.22;;;24.15;54.83
13241;BME280;6687;47.790;7.322;2023-07-24T06:18:54;98218.69;;;24.33;52.07
13241;BME280;6687;47.790;7.322;2023-07-24T06:21:21;98194.53;;;24.38;51.61
13241;BME280;6687;47.790;7.322;2023-07-24T06:23:48;98174.25;;;24.51;51.34
13241;BME280;6687;47.790;7.322;2023-07-24T06:26:15;98184.19;;;24.48;52.12
13241;BME280;6687;47.790;7.322;2023-07-24T06:28:42;98189.72;;;24.57;50.94
13241;BME280;6687;47.790;7.322;2023-07-24T06:31:09;98196.28;;;24.52;51.76
13241;BME280;6687;47.790;7.322;2023-07-24T06:33:37;98205.53;;;24.72;50.25
13241;BME280;6687;47.790;7.322;2023-07-24T06:36:08;98203.97;;;24.95;49.49
13241;BME280;6687;47.790;7.322;2023-07-24T06:38:35;98210.53;;;24.89;51.09
13241;BME280;6687;47.790;7.322;2023-07-24T06:41:02;98214.22;;;24.99;49.96
13241;BME280;6687;47.790;7.322;2023-07-24T06:43:29;98212.22;;;25.03;50.11
13241;BME280;6687;47.790;7.322;2023-07-24T06:45:56;98218.78;;;25.10;51.44
13241;BME280;6687;47.790;7.322;2023-07-24T06:48:22;98220.78;;;25.19;49.26
13241;BME280;6687;47.790;7.322;2023-07-24T06:50:50;98211.59;;;25.25;49.46
13241;BME280;6687;47.790;7.322;2023-07-24T06:53:17;98209.78;;;25.26;49.23
13241;BME280;6687;47.790;7.322;2023-07-24T06:55:44;98208.91;;;25.38;48.81
13241;BME280;6687;47.790;7.322;2023-07-24T06:58:10;98211.34;;;25.41;48.96
13241;BME280;6687;47.790;7.322;2023-07-24T07:00:37;98217.47;;;25.54;48.60
13241;BME280;6687;47.790;7.322;2023-07-24T07:03:04;98224.41;;;25.31;50.21
13241;BME280;6687;47.790;7.322;2023-07-24T07:05:31;98220.91;;;25.44;49.61
13241;BME280;6687;47.790;7.322;2023-07-24T07:07:59;98231.84;;;25.39;50.71
13241;BME280;6687;47.790;7.322;2023-07-24T07:10:26;98204.59;;;25.37;49.65
13241;BME280;6687;47.790;7.322;2023-07-24T07:12:53;98194.38;;;25.18;51.57
13241;BME280;6687;47.790;7.322;2023-07-24T07:15:20;98230.03;;;25.01;51.00
13241;BME280;6687;47.790;7.322;2023-07-24T07:17:47;98248.25;;;24.13;61.02
13241;BME280;6687;47.790;7.322;2023-07-24T07:20:13;98216.69;;;24.10;57.72
13241;BME280;6687;47.790;7.322;2023-07-24T07:22:40;98227.63;;;23.06;67.99
13241;BME280;6687;47.790;7.322;2023-07-24T07:25:08;98238.06;;;22.63;72.37
13241;BME280;6687;47.790;7.322;2023-07-24T07:27:35;98210.22;;;23.31;63.32
13241;BME280;6687;47.790;7.322;2023-07-24T07:30:02;98200.56;;;22.72;69.04
13241;BME280;6687;47.790;7.322;2023-07-24T07:32:29;98188.31;;;23.00;66.02
13241;BME280;6687;47.790;7.322;2023-07-24T07:34:57;98169.22;;;23.52;59.85
13241;BME280;6687;47.790;7.322;2023-07-24T07:37:23;98170.13;;;23.66;58.46
13241;BME280;6687;47.790;7.322;2023-07-24T07:39:50;98145.47;;;23.38;63.08
13241;BME280;6687;47.790;7.322;2023-07-24T07:42:18;98142.91;;;23.36;65.05
13241;BME280;6687;47.790;7.322;2023-07-24T07:44:45;98154.16;;;22.08;77.44
13241;BME280;6687;47.790;7.322;2023-07-24T07:47:12;98167.06;;;21.82;80.17
13241;BME280;6687;47.790;7.322;2023-07-24T07:49:39;98130.34;;;21.79;81.11
13241;BME280;6687;47.790;7.322;2023-07-24T07:52:07;98120.28;;;22.75;75.10
13241;BME280;6687;47.790;7.322;2023-07-24T07:54:34;98126.31;;;22.77;73.56
13241;BME280;6687;47.790;7.322;2023-07-24T07:57:00;98109.34;;;23.10;67.92
13241;BME280;6687;47.790;7.322;2023-07-24T07:59:29;98104.31;;;22.48;79.84
13241;BME280;6687;47.790;7.322;2023-07-24T08:01:55;98111.16;;;22.66;80.77
13241;BME280;6687;47.790;7.322;2023-07-24T08:04:22;98119.13;;;22.93;80.11
13241;BME280;6687;47.790;7.322;2023-07-24T08:06:49;98106.22;;;23.17;72.82
13241;BME280;6687;47.790;7.322;2023-07-24T08:09:15;98102.63;;;23.18;66.46
13241;BME280;6687;47.790;7.322;2023-07-24T08:11:43;98097.22;;;23.34;64.60
13241;BME280;6687;47.790;7.322;2023-07-24T08:14:09;98097.63;;;23.28;66.63
13241;BME280;6687;47.790;7.322;2023-07-24T08:16:37;98082.75;;;23.40;60.46
13241;BME280;6687;47.790;7.322;2023-07-24T08:19:04;98097.06;;;23.50;59.23
13241;BME280;6687;47.790;7.322;2023-07-24T08:21:31;98122.47;;;23.53;58.97
13241;BME280;6687;47.790;7.322;2023-07-24T08:23:58;98155.25;;;23.50;58.27
13241;BME280;6687;47.790;7.322;2023-07-24T08:26:25;98162.63;;;23.45;58.82
13241;BME280;6687;47.790;7.322;2023-07-24T08:28:52;98129.84;;;23.06;70.05
13241;BME280;6687;47.790;7.322;2023-07-24T08:31:19;98128.38;;;22.57;78.31
13241;BME280;6687;47.790;7.322;2023-07-24T08:33:47;98136.81;;;23.07;61.59
13241;BME280;6687;47.790;7.322;2023-07-24T08:36:14;98142.63;;;23.27;59.71
13241;BME280;6687;47.790;7.322;2023-07-24T08:38:41;98140.56;;;23.32;60.03
13241;BME280;6687;47.790;7.322;2023-07-24T08:41:09;98132.38;;;23.08;62.29
13241;BME280;6687;47.790;7.322;2023-07-24T08:43:38;98128.50;;;22.70;69.95
13241;BME280;6687;47.790;7.322;2023-07-24T08:46:05;98179.75;;;22.21;78.19
13241;BME280;6687;47.790;7.322;2023-07-24T08:48:33;98266.00;;;21.73;83.76
13241;BME280;6687;47.790;7.322;2023-07-24T08:51:04;98329.22;;;21.75;80.93
13241;BME280;6687;47.790;7.322;2023-07-24T08:53:32;98291.56;;;22.36;68.01
13241;BME280;6687;47.790;7.322;2023-07-24T08:56:02;98319.72;;;22.36;69.88
13241;BME280;6687;47.790;7.322;2023-07-24T08:58:29;98306.78;;;21.99;70.87
13241;BME280;6687;47.790;7.322;2023-07-24T09:00:56;98267.56;;;22.25;68.90
13241;BME280;6687;47.790;7.322;2023-07-24T09:03:23;98255.88;;;22.29;67.82
13241;BME280;6687;47.790;7.322;2023-07-24T09:05:50;98242.97;;;22.55;65.93
13241;BME280;6687;47.790;7.322;2023-07-24T09:08:28;98251.31;;;22.47;65.58
13241;BME280;6687;47.790;7.322;2023-07-24T09:10:55;98228.41;;;22.48;64.32
13241;BME280;6687;47.790;7.322;2023-07-24T09:13:21;98248.22;;;22.24;65.22
13241;BME280;6687;47.790;7.322;2023-07-24T09:15:48;98246.44;;;22.25;64.88
13241;BME280;6687;47.790;7.322;2023-07-24T09:18:15;98238.94;;;22.33;63.45
13241;BME280;6687;47.790;7.322;2023-07-24T09:20:43;98241.28;;;22.22;63.86
13241;BME280;6687;47.790;7.322;2023-07-24T09:23:11;98214.13;;;22.20;63.53
13241;BME280;6687;47.790;7.322;2023-07-24T09:25:42;98211.28;;;22.09;65.45
13241;BME280;6687;47.790;7.322;2023-07-24T09:28:10;98190.50;;;22.18;63.18
13241;BME280;6687;47.790;7.322;2023-07-24T09:30:37;98205.56;;;22.16;62.95
13241;BME280;6687;47.790;7.322;2023-07-24T09:33:04;98257.91;;;21.92;64.93
13241;BME280;6687;47.790;7.322;2023-07-24T09:35:31;98275.19;;;21.82;65.23
13241;BME280;6687;47.790;7.322;2023-07-24T09:38:08;98263.13;;;21.78;65.90
13241;BME280;6687;47.790;7.322;2023-07-24T09:40:41;98262.19;;;21.63;65.98
13241;BME280;6687;47.790;7.322;2023-07-24T09:43:18;98258.78;;;21.77;64.25
13241;BME280;6687;47.790;7.322;2023-07-24T09:45:46;98261.41;;;21.45;66.18
13241;BME280;6687;47.790;7.322;2023-07-24T09:48:14;98273.53;;;21.48;67.82
13241;BME280;6687;47.790;7.322;2023-07-24T09:50:43;98255.88;;;21.32;68.66
13241;BME280;6687;47.790;7.322;2023-07-24T09:53:13;98243.91;;;21.42;66.81
13241;BME280;6687;47.790;7.322;2023-07-24T09:55:49;98202.72;;;21.57;64.40
13241;BME280;6687;47.790;7.322;2023-07-24T09:58:20;98122.81;;;21.87;63.25
13241;BME280;6687;47.790;7.322;2023-07-24T10:00:48;98123.66;;;21.88;63.51
13241;BME280;6687;47.790;7.322;2023-07-24T10:03:16;98098.97;;;22.04;62.83
13241;BME280;6687;47.790;7.322;2023-07-24T10:05:44;98131.94;;;22.12;62.33
13241;BME280;6687;47.790;7.322;2023-07-24T10:08:11;98122.19;;;22.28;61.77
13241;BME280;6687;47.790;7.322;2023-07-24T10:10:38;98129.78;;;22.49;61.50
13241;BME280;6687;47.790;7.322;2023-07-24T10:13:07;98136.31;;;22.72;61.09
13241;BME280;6687;47.790;7.322;2023-07-24T10:15:36;98136.22;;;22.88;62.92
13241;BME280;6687;47.790;7.322;2023-07-24T10:18:05;98139.91;;;23.14;60.14
13241;BME280;6687;47.790;7.322;2023-07-24T10:20:35;98136.97;;;23.33;60.69
13241;BME280;6687;47.790;7.322;2023-07-24T10:23:02;98143.63;;;23.53;62.14
13241;BME280;6687;47.790;7.322;2023-07-24T10:25:30;98148.56;;;23.72;61.85
13241;BME280;6687;47.790;7.322;2023-07-24T10:28:02;98156.69;;;23.83;63.43
13241;BME280;6687;47.790;7.322;2023-07-24T10:30:34;98168.59;;;24.03;63.19
13241;BME280;6687;47.790;7.322;2023-07-24T10:33:06;98180.63;;;24.21;62.32
13241;BME280;6687;47.790;7.322;2023-07-24T10:35:37;98186.91;;;24.46;63.63
13241;BME280;6687;47.790;7.322;2023-07-24T10:38:04;98186.00;;;24.60;62.37
13241;BME280;6687;47.790;7.322;2023-07-24T10:40:32;98188.78;;;24.71;64.33
13241;BME280;6687;47.790;7.322;2023-07-24T10:43:01;98185.06;;;24.87;68.22
13241;BME280;6687;47.790;7.322;2023-07-24T10:45:40;98182.31;;;24.88;67.73
13241;BME280;6687;47.790;7.322;2023-07-24T10:48:07;98191.63;;;25.19;63.64
13241;BME280;6687;47.790;7.322;2023-07-24T10:50:38;98186.84;;;25.25;68.29
13241;BME280;6687;47.790;7.322;2023-07-24T10:53:04;98189.31;;;25.28;61.27
13241;BME280;6687;47.790;7.322;2023-07-24T10:55:31;98192.25;;;25.36;62.00
13241;BME280;6687;47.790;7.322;2023-07-24T10:57:58;98190.34;;;25.51;60.71
13241;BME280;6687;47.790;7.322;2023-07-24T11:00:25;98177.84;;;25.64;60.48
13241;BME280;6687;47.790;7.322;2023-07-24T11:02:54;98178.09;;;25.85;60.75
13241;BME280;6687;47.790;7.322;2023-07-24T11:05:21;98178.72;;;25.89;60.32
13241;BME280;6687;47.790;7.322;2023-07-24T11:07:48;98186.16;;;25.96;58.53
13241;BME280;6687;47.790;7.322;2023-07-24T11:10:16;98180.97;;;25.95;61.71
13241;BME280;6687;47.790;7.322;2023-07-24T11:12:42;98192.03;;;26.13;58.95
13241;BME280;6687;47.790;7.322;2023-07-24T11:15:10;98191.31;;;26.22;60.58
13241;BME280;6687;47.790;7.322;2023-07-24T11:17:38;98183.28;;;26.35;61.44
13241;BME280;6687;47.790;7.322;2023-07-24T11:20:10;98218.91;;;26.32;60.38
13241;BME280;6687;47.790;7.322;2023-07-24T11:22:43;98216.16;;;26.45;58.57
13241;BME280;6687;47.790;7.322;2023-07-24T11:25:11;98211.94;;;26.43;59.41
13241;BME280;6687;47.790;7.322;2023-07-24T11:27:38;98210.88;;;26.92;58.45
13241;BME280;6687;47.790;7.322;2023-07-24T11:30:07;98209.88;;;26.82;57.54
13241;BME280;6687;47.790;7.322;2023-07-24T11:32:34;98196.13;;;26.88;57.19
13241;BME280;6687;47.790;7.322;2023-07-24T11:35:02;98189.38;;;26.95;59.83
13241;BME280;6687;47.790;7.322;2023-07-24T11:37:31;98189.38;;;26.95;58.31
13241;BME280;6687;47.790;7.322;2023-07-24T11:39:59;98180.25;;;26.64;59.39
13241;BME280;6687;47.790;7.322;2023-07-24T11:42:29;98177.53;;;26.41;60.33
13241;BME280;6687;47.790;7.322;2023-07-24T11:45:00;98188.13;;;26.65;59.80
13241;BME280;6687;47.790;7.322;2023-07-24T11:47:27;98172.91;;;26.78;58.40
13241;BME280;6687;47.790;7.322;2023-07-24T11:49:59;98182.56;;;26.79;57.89
13241;BME280;6687;47.790;7.322;2023-07-24T11:52:36;98176.56;;;26.53;58.18
13241;BME280;6687;47.790;7.322;2023-07-24T11:55:06;98181.16;;;26.87;57.03
13241;BME280;6687;47.790;7.322;2023-07-24T11:57:33;98176.38;;;26.68;57.49
13241;BME280;6687;47.790;7.322;2023-07-24T12:00:00;98179.34;;;26.98;55.38
13241;BME280;6687;47.790;7.322;2023-07-24T12:02:26;98171.72;;;27.16;54.75
13241;BME280;6687;47.790;7.322;2023-07-24T12:04:55;98175.59;;;27.12;56.90
13241;BME280;6687;47.790;7.322;2023-07-24T12:07:28;98172.50;;;27.30;54.72
13241;BME280;6687;47.790;7.322;2023-07-24T12:09:55;98179.47;;;27.42;53.83
13241;BME280;6687;47.790;7.322;2023-07-24T12:12:23;98156.19;;;27.67;54.04
13241;BME280;6687;47.790;7.322;2023-07-24T12:14:50;98157.47;;;27.40;54.20
13241;BME280;6687;47.790;7.322;2023-07-24T12:17:18;98145.66;;;27.76;52.78
13241;BME280;6687;47.790;7.322;2023-07-24T12:19:46;98146.97;;;27.82;52.76
13241;BME280;6687;47.790;7.322;2023-07-24T12:22:13;98141.69;;;28.03;52.26
13241;BME280;6687;47.790;7.322;2023-07-24T12:24:40;98142.09;;;27.99;52.17
13241;BME280;6687;47.790;7.322;2023-07-24T12:27:07;98137.09;;;28.05;52.21
13241;BME280;6687;47.790;7.322;2023-07-24T12:29:35;98142.78;;;28.12;51.94
13241;BME280;6687;47.790;7.322;2023-07-24T12:32:02;98137.28;;;27.81;52.53
13241;BME280;6687;47.790;7.322;2023-07-24T12:34:29;98152.63;;;28.00;53.00
13241;BME280;6687;47.790;7.322;2023-07-24T12:36:55;98140.41;;;27.98;51.47
13241;BME280;6687;47.790;7.322;2023-07-24T12:39:22;98150.16;;;27.65;51.95
13241;BME280;6687;47.790;7.322;2023-07-24T12:41:49;98151.41;;;27.49;54.12
13241;BME280;6687;47.790;7.322;2023-07-24T12:44:16;98135.69;;;27.46;53.07
13241;BME280;6687;47.790;7.322;2023-07-24T12:46:44;98147.81;;;27.28;53.90
13241;BME280;6687;47.790;7.322;2023-07-24T12:49:10;98141.38;;;27.08;54.53
13241;BME280;6687;47.790;7.322;2023-07-24T12:51:37;98143.06;;;26.97;54.73
13241;BME280;6687;47.790;7.322;2023-07-24T12:54:04;98130.16;;;26.93;56.75
13241;BME280;6687;47.790;7.322;2023-07-24T12:56:30;98138.81;;;26.61;60.59
13241;BME280;6687;47.790;7.322;2023-07-24T12:58:57;98153.25;;;26.92;55.38
13241;BME280;6687;47.790;7.322;2023-07-24T13:01:24;98153.34;;;26.79;55.64
13241;BME280;6687;47.790;7.322;2023-07-24T13:03:54;98162.69;;;26.50;56.64
13241;BME280;6687;47.790;7.322;2023-07-24T13:06:21;98155.75;;;26.36;56.56
13241;BME280;6687;47.790;7.322;2023-07-24T13:08:47;98140.59;;;26.14;58.08
13241;BME280;6687;47.790;7.322;2023-07-24T13:11:14;98132.22;;;26.31;56.83
13241;BME280;6687;47.790;7.322;2023-07-24T13:13:41;98135.38;;;26.36;56.30
13241;BME280;6687;47.790;7.322;2023-07-24T13:16:08;98132.00;;;26.34;56.05
13241;BME280;6687;47.790;7.322;2023-07-24T13:18:34;98129.91;;;26.38;56.32
13241;BME280;6687;47.790;7.322;2023-07-24T13:21:02;98125.81;;;26.34;56.13
13241;BME280;6687;47.790;7.322;2023-07-24T13:23:31;98123.50;;;26.29;58.35
13241;BME280;6687;47.790;7.322;2023-07-24T13:25:58;98113.97;;;26.38;58.35
13241;BME280;6687;47.790;7.322;2023-07-24T13:28:25;98093.00;;;26.46;58.08
13241;BME280;6687;47.790;7.322;2023-07-24T13:30:51;98084.97;;;26.70;57.44
13241;BME280;6687;47.790;7.322;2023-07-24T13:33:18;98089.53;;;26.79;58.32
13241;BME280;6687;47.790;7.322;2023-07-24T13:35:47;98088.22;;;26.96;56.91
13241;BME280;6687;47.790;7.322;2023-07-24T13:38:15;98085.44;;;26.87;56.17
13241;BME280;6687;47.790;7.322;2023-07-24T13:40:42;98074.31;;;26.93;56.40
13241;BME280;6687;47.790;7.322;2023-07-24T13:43:09;98079.63;;;26.93;57.70
13241;BME280;6687;47.790;7.322;2023-07-24T13:45:36;98064.13;;;27.09;56.15
13241;BME280;6687;47.790;7.322;2023-07-24T13:48:03;98072.00;;;27.11;57.92
13241;BME280;6687;47.790;7.322;2023-07-24T13:50:29;98083.72;;;27.08;58.61
13241;BME280;6687;47.790;7.322;2023-07-24T13:52:56;98078.16;;;27.34;58.47
13241;BME280;6687;47.790;7.322;2023-07-24T13:55:24;98076.53;;;27.54;58.68
13241;BME280;6687;47.790;7.322;2023-07-24T13:57:51;98078.78;;;27.70;56.32
13241;BME280;6687;47.790;7.322;2023-07-24T14:00:18;98090.75;;;27.64;56.55
13241;BME280;6687;47.790;7.322;2023-07-24T14:02:44;98082.47;;;28.11;55.29
13241;BME280;6687;47.790;7.322;2023-07-24T14:05:11;98071.28;;;28.17;54.97
13241;BME280;6687;47.790;7.322;2023-07-24T14:07:38;98067.91;;;28.57;53.60
13241;BME280;6687;47.790;7.322;2023-07-24T14:10:05;98046.31;;;28.60;54.44
13241;BME280;6687;47.790;7.322;2023-07-24T14:12:34;98039.81;;;29.34;52.33
13241;BME280;6687;47.790;7.322;2023-07-24T14:15:00;98030.53;;;29.38;51.13
13241;BME280;6687;47.790;7.322;2023-07-24T14:17:27;98027.31;;;29.44;50.27
13241;BME280;6687;47.790;7.322;2023-07-24T14:19:54;98020.88;;;29.47;49.68
13241;BME280;6687;47.790;7.322;2023-07-24T14:22:21;98018.34;;;29.45;50.40
13241;BME280;6687;47.790;7.322;2023-07-24T14:24:47;98021.97;;;29.64;49.49
13241;BME280;6687;47.790;7.322;2023-07-24T14:27:14;98004.13;;;29.64;49.84
13241;BME280;6687;47.790;7.322;2023-07-24T14:29:42;98018.75;;;29.70;49.31
13241;BME280;6687;47.790;7.322;2023-07-24T14:32:09;98015.09;;;29.42;50.04
13241;BME280;6687;47.790;7.322;2023-07-24T14:34:35;98026.06;;;29.39;50.17
13241;BME280;6687;47.790;7.322;2023-07-24T14:37:02;98018.31;;;29.35;50.30
13241;BME280;6687;47.790;7.322;2023-07-24T14:39:29;98006.66;;;29.37;49.75
13241;BME280;6687;47.790;7.322;2023-07-24T14:41:56;98016.28;;;29.08;50.53
13241;BME280;6687;47.790;7.322;2023-07-24T14:44:23;98018.94;;;29.08;50.28
13241;BME280;6687;47.790;7.322;2023-07-24T14:46:51;98010.25;;;29.06;49.89
13241;BME280;6687;47.790;7.322;2023-07-24T14:49:18;98008.56;;;29.05;49.90
13241;BME280;6687;47.790;7.322;2023-07-24T14:51:44;98011.88;;;28.88;50.18
13241;BME280;6687;47.790;7.322;2023-07-24T14:54:11;98007.16;;;29.01;50.03
13241;BME280;6687;47.790;7.322;2023-07-24T14:56:38;97999.94;;;29.23;49.22
13241;BME280;6687;47.790;7.322;2023-07-24T14:59:04;98010.53;;;29.03;48.46
13241;BME280;6687;47.790;7.322;2023-07-24T15:01:31;98015.81;;;28.84;49.65
13241;BME280;6687;47.790;7.322;2023-07-24T15:03:59;98014.16;;;29.02;49.61
13241;BME280;6687;47.790;7.322;2023-07-24T15:06:26;98022.47;;;29.09;48.67
13241;BME280;6687;47.790;7.322;2023-07-24T15:08:53;98011.38;;;29.04;49.15
13241;BME280;6687;47.790;7.322;2023-07-24T15:11:21;98025.75;;;29.22;48.54
13241;BME280;6687;47.790;7.322;2023-07-24T15:13:48;98024.50;;;29.55;48.32
13241;BME280;6687;47.790;7.322;2023-07-24T15:16:15;98025.66;;;29.63;47.61
13241;BME280;6687;47.790;7.322;2023-07-24T15:18:42;98036.88;;;29.66;47.39
13241;BME280;6687;47.790;7.322;2023-07-24T15:21:10;98037.88;;;29.55;46.94
13241;BME280;6687;47.790;7.322;2023-07-24T15:23:37;98047.56;;;29.76;47.11
13241;BME280;6687;47.790;7.322;2023-07-24T15:26:04;98041.28;;;29.77;46.70
13241;BME280;6687;47.790;7.322;2023-07-24T15:28:30;98049.41;;;29.85;46.93
13241;BME280;6687;47.790;7.322;2023-07-24T15:30:57;98054.19;;;29.91;46.46
13241;BME280;6687;47.790;7.322;2023-07-24T15:33:24;98046.03;;;30.03;46.02
13241;BME280;6687;47.790;7.322;2023-07-24T15:35:51;98042.94;;;29.98;46.31
13241;BME280;6687;47.790;7.322;2023-07-24T15:38:19;98040.06;;;30.28;45.49
13241;BME280;6687;47.790;7.322;2023-07-24T15:40:45;98044.63;;;30.08;46.34
13241;BME280;6687;47.790;7.322;2023-07-24T15:43:12;98048.75;;;30.50;44.76
13241;BME280;6687;47.790;7.322;2023-07-24T15:45:39;98051.81;;;30.55;45.41
13241;BME280;6687;47.790;7.322;2023-07-24T15:48:06;98040.53;;;30.61;44.52
13241;BME280;6687;47.790;7.322;2023-07-24T15:50:32;98048.78;;;30.40;44.74
13241;BME280;6687;47.790;7.322;2023-07-24T15:52:59;98040.91;;;30.39;45.34
13241;BME280;6687;47.790;7.322;2023-07-24T15:55:27;98054.72;;;30.71;44.38
13241;BME280;6687;47.790;7.322;2023-07-24T15:57:54;98054.75;;;30.99;43.64
13241;BME280;6687;47.790;7.322;2023-07-24T16:00:20;98043.31;;;31.07;43.74
13241;BME280;6687;47.790;7.322;2023-07-24T16:02:47;98039.69;;;31.26;43.61
13241;BME280;6687;47.790;7.322;2023-07-24T16:05:18;98030.75;;;31.53;43.04
13241;BME280;6687;47.790;7.322;2023-07-24T16:07:45;98026.25;;;31.89;42.22
13241;BME280;6687;47.790;7.322;2023-07-24T16:10:12;98023.13;;;31.58;42.78
13241;BME280;6687;47.790;7.322;2023-07-24T16:12:40;98032.88;;;31.67;42.08
13241;BME280;6687;47.790;7.322;2023-07-24T16:15:08;98030.03;;;32.05;41.71
13241;BME280;6687;47.790;7.322;2023-07-24T16:17:35;98035.72;;;32.02;41.21
13241;BME280;6687;47.790;7.322;2023-07-24T16:20:03;98017.84;;;32.10;41.32
13241;BME280;6687;47.790;7.322;2023-07-24T16:22:30;98021.16;;;31.86;40.19
13241;BME280;6687;47.790;7.322;2023-07-24T16:24:57;98023.53;;;32.34;40.70
13241;BME280;6687;47.790;7.322;2023-07-24T16:27:24;98027.00;;;32.52;40.81
13241;BME280;6687;47.790;7.322;2023-07-24T16:29:52;98021.75;;;32.16;40.87
13241;BME280;6687;47.790;7.322;2023-07-24T16:32:19;98031.25;;;31.92;41.20
13241;BME280;6687;47.790;7.322;2023-07-24T16:34:45;98026.25;;;31.89;40.50
13241;BME280;6687;47.790;7.322;2023-07-24T16:37:12;98022.97;;;31.78;40.63
13241;BME280;6687;47.790;7.322;2023-07-24T16:39:39;98022.38;;;32.10;40.93
13241;BME280;6687;47.790;7.322;2023-07-24T16:42:05;98014.50;;;32.08;40.73
13241;BME280;6687;47.790;7.322;2023-07-24T16:44:32;98004.81;;;31.89;41.20
13241;BME280;6687;47.790;7.322;2023-07-24T16:47:00;98008.00;;;31.21;41.43
13241;BME280;6687;47.790;7.322;2023-07-24T16:49:27;98009.84;;;31.75;41.74
13241;BME280;6687;47.790;7.322;2023-07-24T16:51:53;98016.13;;;31.65;41.50
13241;BME280;6687;47.790;7.322;2023-07-24T16:54:20;98019.34;;;31.69;41.53
13241;BME280;6687;47.790;7.322;2023-07-24T16:56:47;98013.84;;;31.52;42.04
13241;BME280;6687;47.790;7.322;2023-07-24T16:59:14;98020.47;;;31.12;42.04
13241;BME280;6687;47.790;7.322;2023-07-24T17:01:40;98022.72;;;31.53;41.21
13241;BME280;6687;47.790;7.322;2023-07-24T17:04:08;98028.56;;;31.21;41.99
13241;BME280;6687;47.790;7.322;2023-07-24T17:06:35;98036.13;;;31.25;42.25
13241;BME280;6687;47.790;7.322;2023-07-24T17:09:02;98038.91;;;30.50;42.47
13241;BME280;6687;47.790;7.322;2023-07-24T17:11:29;98039.16;;;30.57;41.14
13241;BME280;6687;47.790;7.322;2023-07-24T17:13:56;98037.16;;;31.24;41.73
13241;BME280;6687;47.790;7.322;2023-07-24T17:16:23;98040.66;;;30.22;40.83
13241;BME280;6687;47.790;7.322;2023-07-24T17:18:49;98040.97;;;30.00;40.53
13241;BME280;6687;47.790;7.322;2023-07-24T17:21:21;98044.63;;;29.79;41.22
13241;BME280;6687;47.790;7.322;2023-07-24T17:23:47;98038.16;;;29.43;41.66
13241;BME280;6687;47.790;7.322;2023-07-24T17:26:14;98040.47;;;29.17;42.62
13241;BME280;6687;47.790;7.322;2023-07-24T17:28:41;98043.97;;;29.07;42.50
13241;BME280;6687;47.790;7.322;2023-07-24T17:31:09;98045.72;;;29.47;42.31
13241;BME280;6687;47.790;7.322;2023-07-24T17:33:36;98035.19;;;29.55;41.59
13241;BME280;6687;47.790;7.322;2023-07-24T17:36:03;98042.38;;;29.94;41.17
13241;BME280;6687;47.790;7.322;2023-07-24T17:38:31;98034.41;;;29.74;41.71
13241;BME280;6687;47.790;7.322;2023-07-24T17:40:58;98031.81;;;28.84;42.88
13241;BME280;6687;47.790;7.322;2023-07-24T17:43:26;98043.59;;;28.81;43.29
13241;BME280;6687;47.790;7.322;2023-07-24T17:45:53;98042.72;;;28.81;43.16
13241;BME280;6687;47.790;7.322;2023-07-24T17:48:20;98047.72;;;28.64;43.05
13241;BME280;6687;47.790;7.322;2023-07-24T17:50:47;98033.38;;;28.96;43.38
13241;BME280;6687;47.790;7.322;2023-07-24T17:53:14;98041.22;;;28.88;43.67
13241;BME280;6687;47.790;7.322;2023-07-24T17:55:42;98042.72;;;29.11;44.25
13241;BME280;6687;47.790;7.322;2023-07-24T17:58:08;98040.97;;;28.91;44.17
13241;BME280;6687;47.790;7.322;2023-07-24T18:00:35;98035.78;;;28.99;43.79
13241;BME280;6687;47.790;7.322;2023-07-24T18:03:05;98045.09;;;28.43;44.04
13241;BME280;6687;47.790;7.322;2023-07-24T18:05:32;98046.47;;;28.38;43.61
13241;BME280;6687;47.790;7.322;2023-07-24T18:07:59;98049.06;;;28.07;44.70
13241;BME280;6687;47.790;7.322;2023-07-24T18:10:25;98050.81;;;28.60;44.09
13241;BME280;6687;47.790;7.322;2023-07-24T18:12:54;98057.47;;;27.70;53.09
13241;BME280;6687;47.790;7.322;2023-07-24T18:15:20;98053.50;;;27.64;58.21
13241;BME280;6687;47.790;7.322;2023-07-24T18:17:47;98050.50;;;27.57;60.10
13241;BME280;6687;47.790;7.322;2023-07-24T18:20:14;98053.66;;;26.96;59.55
13241;BME280;6687;47.790;7.322;2023-07-24T18:22:41;98050.78;;;26.08;52.73
13241;BME280;6687;47.790;7.322;2023-07-24T18:25:08;98044.72;;;26.52;51.21
13241;BME280;6687;47.790;7.322;2023-07-24T18:27:35;98036.69;;;26.07;50.83
13241;BME280;6687;47.790;7.322;2023-07-24T18:30:06;98043.94;;;26.16;50.55
13241;BME280;6687;47.790;7.322;2023-07-24T18:32:33;98053.72;;;25.80;51.27
13241;BME280;6687;47.790;7.322;2023-07-24T18:35:00;98045.72;;;25.69;51.21